Urb San Rafael Est Ii, Puerto Rico
Current Conditions -  °F | °C
As of 10:56 AM on Wednesday 22 Oct 2014 (Local Time) from TJSJ Reporting Station
Few Clouds Few Clouds  
Wind Chill: 88°   Ceiling: Unl
Heat Index: 100°   Visibility: 10mi
Dew Point: 77°   Wind: 13mph
Humidity: 70%   Direction: 50°NE
Pressure: 29.97"   Gusts: NA
Location:  18.1781°N, 66.1167°W
Report Text: TJSJ 221456Z 05011KT 10SM FEW033 31/25 A2997 RMK AO2 SLP148 T03110250 58003
Loading
Personal Weather Stations






























Interactive Weather Map
Tropical Storm Tracking
New forecast layout! Learn more

10-Day Weather Forecast

Advertisements
Track Severe Weather on mobile